EKSB

Sønderborg Airport

Sønderborg, Denmark
METAR EKSB 191650Z 21005KT 140V250 9999 BKN040 22/14 Q1015
Observed Flight Rules
Aug-19 @ 16:50 UTC (24 minutes ago) Visual Flight Rules
Wind Visibility Clouds
210° at 5 knots 10,000+ meters
  • Broken at 4,000' AGL
Temperatures Readings
Current 22°C / 72°F
Dewpoint 14°C / 57°F
Humidity 61%
Altimeter 29.97" Hg
Pressure 1015 hPa
Elevation 23
METAR EKSB 191650Z 21005KT 140V250 9999 BKN040 22/14 Q1015
Observed Flight Rules
Aug-19 @ 16:50 UTC
(24 minutes ago)
VFR
Wind Visibility
210° at 5 knots 10,000+ meters
Clouds
  • Broken at 4,000' AGL
Temperature Dewpoint
22°C / 72°F 14°C / 57°F
Humidity Altimeter Pressure
61% 29.97" Hg 1015 hPa